sensor_id;sensor_type;location;lat;lon;timestamp;temperature;humidity
6841;DHT22;3458;53.678;14.080;2022-07-05T00:00:44;20.90;94.30
6841;DHT22;3458;53.678;14.080;2022-07-05T00:03:10;20.90;94.40
6841;DHT22;3458;53.678;14.080;2022-07-05T00:05:36;20.80;94.50
6841;DHT22;3458;53.678;14.080;2022-07-05T00:08:02;20.80;94.30
6841;DHT22;3458;53.678;14.080;2022-07-05T00:10:28;20.80;94.40
6841;DHT22;3458;53.678;14.080;2022-07-05T00:12:54;20.80;94.30
6841;DHT22;3458;53.678;14.080;2022-07-05T00:15:19;20.70;94.40
6841;DHT22;3458;53.678;14.080;2022-07-05T00:17:45;20.70;94.30
6841;DHT22;3458;53.678;14.080;2022-07-05T00:20:11;20.70;94.40
6841;DHT22;3458;53.678;14.080;2022-07-05T00:22:36;20.60;94.60
6841;DHT22;3458;53.678;14.080;2022-07-05T00:25:03;20.60;94.90
6841;DHT22;3458;53.678;14.080;2022-07-05T00:27:28;20.60;94.90
6841;DHT22;3458;53.678;14.080;2022-07-05T00:29:54;20.60;94.80
6841;DHT22;3458;53.678;14.080;2022-07-05T00:32:19;20.60;94.80
6841;DHT22;3458;53.678;14.080;2022-07-05T00:34:45;20.50;94.70
6841;DHT22;3458;53.678;14.080;2022-07-05T00:37:10;20.60;94.70
6841;DHT22;3458;53.678;14.080;2022-07-05T00:39:36;20.50;94.70
6841;DHT22;3458;53.678;14.080;2022-07-05T00:42:02;20.40;95.00
6841;DHT22;3458;53.678;14.080;2022-07-05T00:44:33;20.30;95.20
6841;DHT22;3458;53.678;14.080;2022-07-05T00:47:01;20.20;95.50
6841;DHT22;3458;53.678;14.080;2022-07-05T00:49:26;20.20;95.70
6841;DHT22;3458;53.678;14.080;2022-07-05T00:51:52;20.20;95.60
6841;DHT22;3458;53.678;14.080;2022-07-05T00:54:18;20.20;95.80
6841;DHT22;3458;53.678;14.080;2022-07-05T00:56:44;20.20;95.70
6841;DHT22;3458;53.678;14.080;2022-07-05T00:59:09;20.20;95.80
6841;DHT22;3458;53.678;14.080;2022-07-05T01:01:35;20.20;95.90
6841;DHT22;3458;53.678;14.080;2022-07-05T01:04:00;20.10;96.00
6841;DHT22;3458;53.678;14.080;2022-07-05T01:06:26;20.10;96.00
6841;DHT22;3458;53.678;14.080;2022-07-05T01:08:52;20.00;96.20
6841;DHT22;3458;53.678;14.080;2022-07-05T01:11:17;19.90;96.40
6841;DHT22;3458;53.678;14.080;2022-07-05T01:13:43;19.80;96.60
6841;DHT22;3458;53.678;14.080;2022-07-05T01:16:09;19.70;96.90
6841;DHT22;3458;53.678;14.080;2022-07-05T01:18:34;19.80;97.20
6841;DHT22;3458;53.678;14.080;2022-07-05T01:21:01;19.80;97.30
6841;DHT22;3458;53.678;14.080;2022-07-05T01:23:28;19.80;97.30
6841;DHT22;3458;53.678;14.080;2022-07-05T01:25:56;19.70;97.40
6841;DHT22;3458;53.678;14.080;2022-07-05T01:28:21;19.60;97.70
6841;DHT22;3458;53.678;14.080;2022-07-05T01:30:47;19.60;98.10
6841;DHT22;3458;53.678;14.080;2022-07-05T01:33:13;19.60;98.20
6841;DHT22;3458;53.678;14.080;2022-07-05T01:35:38;19.60;98.40
6841;DHT22;3458;53.678;14.080;2022-07-05T01:38:04;19.60;98.50
6841;DHT22;3458;53.678;14.080;2022-07-05T01:40:30;19.60;98.40
6841;DHT22;3458;53.678;14.080;2022-07-05T01:42:56;19.60;98.30
6841;DHT22;3458;53.678;14.080;2022-07-05T01:45:22;19.70;98.40
6841;DHT22;3458;53.678;14.080;2022-07-05T01:48:09;19.60;98.40
6841;DHT22;3458;53.678;14.080;2022-07-05T01:53:39;19.60;98.70
6841;DHT22;3458;53.678;14.080;2022-07-05T01:56:06;19.40;99.00
6841;DHT22;3458;53.678;14.080;2022-07-05T01:58:32;19.40;99.10
6841;DHT22;3458;53.678;14.080;2022-07-05T02:00:58;19.50;99.20
6841;DHT22;3458;53.678;14.080;2022-07-05T02:03:24;19.40;99.40
6841;DHT22;3458;53.678;14.080;2022-07-05T02:05:50;19.50;99.50
6841;DHT22;3458;53.678;14.080;2022-07-05T02:08:17;19.40;99.50
6841;DHT22;3458;53.678;14.080;2022-07-05T02:10:43;19.40;99.60
6841;DHT22;3458;53.678;14.080;2022-07-05T02:13:09;19.40;99.70
6841;DHT22;3458;53.678;14.080;2022-07-05T02:15:37;19.30;99.80
6841;DHT22;3458;53.678;14.080;2022-07-05T02:18:04;19.30;99.90
6841;DHT22;3458;53.678;14.080;2022-07-05T02:20:30;19.30;99.90
6841;DHT22;3458;53.678;14.080;2022-07-05T02:22:56;19.30;99.90
6841;DHT22;3458;53.678;14.080;2022-07-05T02:25:22;19.20;99.90
6841;DHT22;3458;53.678;14.080;2022-07-05T02:27:48;19.10;99.90
6841;DHT22;3458;53.678;14.080;2022-07-05T02:30:14;19.10;99.90
6841;DHT22;3458;53.678;14.080;2022-07-05T02:32:40;19.10;99.90
6841;DHT22;3458;53.678;14.080;2022-07-05T02:35:08;19.10;99.90
6841;DHT22;3458;53.678;14.080;2022-07-05T02:37:34;19.10;99.90
6841;DHT22;3458;53.678;14.080;2022-07-05T02:40:00;19.00;99.90
6841;DHT22;3458;53.678;14.080;2022-07-05T02:42:26;19.00;99.90
6841;DHT22;3458;53.678;14.080;2022-07-05T02:44:52;19.00;99.90
6841;DHT22;3458;53.678;14.080;2022-07-05T02:47:17;18.90;99.90
6841;DHT22;3458;53.678;14.080;2022-07-05T02:49:43;19.00;99.90
6841;DHT22;3458;53.678;14.080;2022-07-05T02:52:08;18.90;99.90
6841;DHT22;3458;53.678;14.080;2022-07-05T02:54:34;18.90;99.90
6841;DHT22;3458;53.678;14.080;2022-07-05T02:57:00;18.80;99.90
6841;DHT22;3458;53.678;14.080;2022-07-05T02:59:25;18.70;99.90
6841;DHT22;3458;53.678;14.080;2022-07-05T03:01:51;18.70;99.90
6841;DHT22;3458;53.678;14.080;2022-07-05T03:04:16;18.80;99.90
6841;DHT22;3458;53.678;14.080;2022-07-05T03:06:42;18.80;99.90
6841;DHT22;3458;53.678;14.080;2022-07-05T03:09:08;18.80;99.90
6841;DHT22;3458;53.678;14.080;2022-07-05T03:11:33;18.80;99.90
6841;DHT22;3458;53.678;14.080;2022-07-05T03:13:59;18.80;99.90
6841;DHT22;3458;53.678;14.080;2022-07-05T03:16:24;18.80;99.90
6841;DHT22;3458;53.678;14.080;2022-07-05T03:18:50;18.80;99.90
6841;DHT22;3458;53.678;14.080;2022-07-05T03:21:16;18.90;99.90
6841;DHT22;3458;53.678;14.080;2022-07-05T03:23:42;18.80;99.90
6841;DHT22;3458;53.678;14.080;2022-07-05T03:26:08;18.80;99.90
6841;DHT22;3458;53.678;14.080;2022-07-05T03:28:33;18.80;99.90
6841;DHT22;3458;53.678;14.080;2022-07-05T03:30:59;18.90;99.90
6841;DHT22;3458;53.678;14.080;2022-07-05T03:33:24;18.80;99.90
6841;DHT22;3458;53.678;14.080;2022-07-05T03:35:50;18.70;99.90
6841;DHT22;3458;53.678;14.080;2022-07-05T03:38:16;18.60;99.90
6841;DHT22;3458;53.678;14.080;2022-07-05T03:40:41;18.60;99.90
6841;DHT22;3458;53.678;14.080;2022-07-05T03:43:07;18.80;99.90
6841;DHT22;3458;53.678;14.080;2022-07-05T03:45:32;18.90;99.90
6841;DHT22;3458;53.678;14.080;2022-07-05T03:47:58;18.80;99.90
6841;DHT22;3458;53.678;14.080;2022-07-05T03:50:24;18.90;99.90
6841;DHT22;3458;53.678;14.080;2022-07-05T03:52:50;18.80;99.90
6841;DHT22;3458;53.678;14.080;2022-07-05T03:55:15;18.70;99.90
6841;DHT22;3458;53.678;14.080;2022-07-05T03:57:41;18.60;99.90
6841;DHT22;3458;53.678;14.080;2022-07-05T04:00:07;18.60;99.90
6841;DHT22;3458;53.678;14.080;2022-07-05T04:02:33;18.50;99.90
6841;DHT22;3458;53.678;14.080;2022-07-05T04:04:58;18.50;99.90
6841;DHT22;3458;53.678;14.080;2022-07-05T04:07:24;18.40;99.90
6841;DHT22;3458;53.678;14.080;2022-07-05T04:09:49;18.40;99.90
6841;DHT22;3458;53.678;14.080;2022-07-05T04:12:15;18.50;99.90
6841;DHT22;3458;53.678;14.080;2022-07-05T04:14:40;18.50;99.90
6841;DHT22;3458;53.678;14.080;2022-07-05T04:17:06;18.50;99.90
6841;DHT22;3458;53.678;14.080;2022-07-05T04:19:32;18.50;99.90
6841;DHT22;3458;53.678;14.080;2022-07-05T04:21:57;18.50;99.90
6841;DHT22;3458;53.678;14.080;2022-07-05T04:24:23;18.50;99.90
6841;DHT22;3458;53.678;14.080;2022-07-05T04:26:48;18.50;99.90
6841;DHT22;3458;53.678;14.080;2022-07-05T04:29:14;18.40;99.90
6841;DHT22;3458;53.678;14.080;2022-07-05T04:31:39;18.50;99.90
6841;DHT22;3458;53.678;14.080;2022-07-05T04:34:05;18.40;99.90
6841;DHT22;3458;53.678;14.080;2022-07-05T04:36:31;18.40;99.90
6841;DHT22;3458;53.678;14.080;2022-07-05T04:38:56;18.50;99.90
6841;DHT22;3458;53.678;14.080;2022-07-05T04:41:22;18.50;99.90
6841;DHT22;3458;53.678;14.080;2022-07-05T04:43:47;18.60;99.90
6841;DHT22;3458;53.678;14.080;2022-07-05T04:46:14;18.60;99.90
6841;DHT22;3458;53.678;14.080;2022-07-05T04:48:40;18.70;99.90
6841;DHT22;3458;53.678;14.080;2022-07-05T04:51:05;18.70;99.90
6841;DHT22;3458;53.678;14.080;2022-07-05T04:53:34;18.70;99.90
6841;DHT22;3458;53.678;14.080;2022-07-05T04:56:00;18.60;99.90
6841;DHT22;3458;53.678;14.080;2022-07-05T04:58:31;18.50;99.90
6841;DHT22;3458;53.678;14.080;2022-07-05T05:00:57;18.60;99.90
6841;DHT22;3458;53.678;14.080;2022-07-05T05:03:23;18.40;99.90
6841;DHT22;3458;53.678;14.080;2022-07-05T05:05:48;18.40;99.90
6841;DHT22;3458;53.678;14.080;2022-07-05T05:08:14;18.30;99.90
6841;DHT22;3458;53.678;14.080;2022-07-05T05:10:40;18.20;99.90
6841;DHT22;3458;53.678;14.080;2022-07-05T05:13:05;18.30;99.90
6841;DHT22;3458;53.678;14.080;2022-07-05T05:15:31;18.30;99.90
6841;DHT22;3458;53.678;14.080;2022-07-05T05:17:56;18.40;99.90
6841;DHT22;3458;53.678;14.080;2022-07-05T05:20:25;18.40;99.90
6841;DHT22;3458;53.678;14.080;2022-07-05T05:22:50;18.50;99.90
6841;DHT22;3458;53.678;14.080;2022-07-05T05:25:16;18.40;99.90
6841;DHT22;3458;53.678;14.080;2022-07-05T05:27:47;18.40;99.90
6841;DHT22;3458;53.678;14.080;2022-07-05T05:30:13;18.40;99.90
6841;DHT22;3458;53.678;14.080;2022-07-05T05:32:42;18.40;99.90
6841;DHT22;3458;53.678;14.080;2022-07-05T05:35:07;18.50;99.90
6841;DHT22;3458;53.678;14.080;2022-07-05T05:37:55;18.50;99.90
6841;DHT22;3458;53.678;14.080;2022-07-05T05:40:22;18.40;99.90
6841;DHT22;3458;53.678;14.080;2022-07-05T05:42:48;18.40;99.90
6841;DHT22;3458;53.678;14.080;2022-07-05T05:45:15;18.40;99.90
6841;DHT22;3458;53.678;14.080;2022-07-05T05:47:55;18.50;99.90
6841;DHT22;3458;53.678;14.080;2022-07-05T05:50:23;18.60;99.90
6841;DHT22;3458;53.678;14.080;2022-07-05T05:52:49;18.60;99.90
6841;DHT22;3458;53.678;14.080;2022-07-05T05:55:16;18.50;99.90
6841;DHT22;3458;53.678;14.080;2022-07-05T05:57:42;18.50;99.90
6841;DHT22;3458;53.678;14.080;2022-07-05T06:00:08;18.50;99.90
6841;DHT22;3458;53.678;14.080;2022-07-05T06:02:34;18.50;99.90
6841;DHT22;3458;53.678;14.080;2022-07-05T06:05:00;18.60;99.90
6841;DHT22;3458;53.678;14.080;2022-07-05T06:07:28;18.70;99.90
6841;DHT22;3458;53.678;14.080;2022-07-05T06:09:54;18.70;99.90
6841;DHT22;3458;53.678;14.080;2022-07-05T06:12:19;18.80;99.90
6841;DHT22;3458;53.678;14.080;2022-07-05T06:14:45;18.90;99.90
6841;DHT22;3458;53.678;14.080;2022-07-05T06:17:13;18.80;99.90
6841;DHT22;3458;53.678;14.080;2022-07-05T06:19:38;18.80;99.90
6841;DHT22;3458;53.678;14.080;2022-07-05T06:22:04;18.70;99.90
6841;DHT22;3458;53.678;14.080;2022-07-05T06:24:30;18.80;99.90
6841;DHT22;3458;53.678;14.080;2022-07-05T06:26:55;18.80;99.90
6841;DHT22;3458;53.678;14.080;2022-07-05T06:29:21;18.80;99.90
6841;DHT22;3458;53.678;14.080;2022-07-05T06:31:46;18.80;99.90
6841;DHT22;3458;53.678;14.080;2022-07-05T06:34:12;18.90;99.90
6841;DHT22;3458;53.678;14.080;2022-07-05T06:36:37;19.00;99.90
6841;DHT22;3458;53.678;14.080;2022-07-05T06:39:03;19.00;99.90
6841;DHT22;3458;53.678;14.080;2022-07-05T06:41:28;19.00;99.90
6841;DHT22;3458;53.678;14.080;2022-07-05T06:43:54;19.00;99.90
6841;DHT22;3458;53.678;14.080;2022-07-05T06:46:19;19.00;99.90
6841;DHT22;3458;53.678;14.080;2022-07-05T06:48:45;18.90;99.90
6841;DHT22;3458;53.678;14.080;2022-07-05T06:51:11;18.90;99.90
6841;DHT22;3458;53.678;14.080;2022-07-05T06:53:36;19.00;99.90
6841;DHT22;3458;53.678;14.080;2022-07-05T06:56:02;19.10;99.90
6841;DHT22;3458;53.678;14.080;2022-07-05T06:58:27;19.10;99.90
6841;DHT22;3458;53.678;14.080;2022-07-05T07:00:53;19.10;99.90
6841;DHT22;3458;53.678;14.080;2022-07-05T07:03:21;19.20;99.90
6841;DHT22;3458;53.678;14.080;2022-07-05T07:05:46;19.20;99.90
6841;DHT22;3458;53.678;14.080;2022-07-05T07:08:12;19.20;99.90
6841;DHT22;3458;53.678;14.080;2022-07-05T07:10:56;19.30;99.90
6841;DHT22;3458;53.678;14.080;2022-07-05T07:13:21;19.30;99.90
6841;DHT22;3458;53.678;14.080;2022-07-05T07:15:47;19.40;99.70
6841;DHT22;3458;53.678;14.080;2022-07-05T07:18:14;19.30;99.50
6841;DHT22;3458;53.678;14.080;2022-07-05T07:20:39;19.40;99.70
6841;DHT22;3458;53.678;14.080;2022-07-05T07:23:05;19.40;99.40
6841;DHT22;3458;53.678;14.080;2022-07-05T07:25:31;19.40;99.90
6841;DHT22;3458;53.678;14.080;2022-07-05T07:27:56;19.50;99.70
6841;DHT22;3458;53.678;14.080;2022-07-05T07:30:27;19.50;99.80
6841;DHT22;3458;53.678;14.080;2022-07-05T07:32:54;19.50;99.70
6841;DHT22;3458;53.678;14.080;2022-07-05T07:35:20;19.60;99.60
6841;DHT22;3458;53.678;14.080;2022-07-05T07:37:46;19.70;99.90
6841;DHT22;3458;53.678;14.080;2022-07-05T07:40:12;19.70;99.80
6841;DHT22;3458;53.678;14.080;2022-07-05T07:42:38;19.80;99.10
6841;DHT22;3458;53.678;14.080;2022-07-05T07:45:04;19.90;98.90
6841;DHT22;3458;53.678;14.080;2022-07-05T07:47:34;19.90;98.20
6841;DHT22;3458;53.678;14.080;2022-07-05T07:50:01;20.00;98.20
6841;DHT22;3458;53.678;14.080;2022-07-05T07:52:27;20.10;98.40
6841;DHT22;3458;53.678;14.080;2022-07-05T07:54:53;20.30;98.60
6841;DHT22;3458;53.678;14.080;2022-07-05T07:57:18;20.50;98.90
6841;DHT22;3458;53.678;14.080;2022-07-05T07:59:44;20.40;97.10
6841;DHT22;3458;53.678;14.080;2022-07-05T08:02:09;20.30;97.10
6841;DHT22;3458;53.678;14.080;2022-07-05T08:04:35;20.30;97.70
6841;DHT22;3458;53.678;14.080;2022-07-05T08:07:01;20.40;98.10
6841;DHT22;3458;53.678;14.080;2022-07-05T08:09:29;20.50;97.10
6841;DHT22;3458;53.678;14.080;2022-07-05T08:11:54;20.50;95.10
6841;DHT22;3458;53.678;14.080;2022-07-05T08:14:20;20.40;95.00
6841;DHT22;3458;53.678;14.080;2022-07-05T08:16:47;20.40;95.20
6841;DHT22;3458;53.678;14.080;2022-07-05T08:19:12;20.50;94.20
6841;DHT22;3458;53.678;14.080;2022-07-05T08:21:56;20.60;94.00
6841;DHT22;3458;53.678;14.080;2022-07-05T08:24:22;20.60;94.20
6841;DHT22;3458;53.678;14.080;2022-07-05T08:26:47;20.70;93.70
6841;DHT22;3458;53.678;14.080;2022-07-05T08:29:14;20.70;93.30
6841;DHT22;3458;53.678;14.080;2022-07-05T08:31:42;20.80;93.30
6841;DHT22;3458;53.678;14.080;2022-07-05T08:34:08;20.90;93.50
6841;DHT22;3458;53.678;14.080;2022-07-05T08:36:34;20.80;92.90
6841;DHT22;3458;53.678;14.080;2022-07-05T08:38:59;20.80;92.30
6841;DHT22;3458;53.678;14.080;2022-07-05T08:41:25;20.70;92.30
6841;DHT22;3458;53.678;14.080;2022-07-05T08:43:51;20.80;92.10
6841;DHT22;3458;53.678;14.080;2022-07-05T08:46:18;20.80;91.30
6841;DHT22;3458;53.678;14.080;2022-07-05T08:48:48;21.00;91.10
6841;DHT22;3458;53.678;14.080;2022-07-05T08:51:15;21.20;90.50
6841;DHT22;3458;53.678;14.080;2022-07-05T08:53:46;21.30;90.10
6841;DHT22;3458;53.678;14.080;2022-07-05T08:56:14;21.50;89.60
6841;DHT22;3458;53.678;14.080;2022-07-05T08:58:40;21.50;89.40
6841;DHT22;3458;53.678;14.080;2022-07-05T09:01:08;21.70;90.20
6841;DHT22;3458;53.678;14.080;2022-07-05T09:03:46;21.70;89.80
6841;DHT22;3458;53.678;14.080;2022-07-05T09:06:22;21.70;89.20
6841;DHT22;3458;53.678;14.080;2022-07-05T09:08:51;21.40;87.50
6841;DHT22;3458;53.678;14.080;2022-07-05T09:11:23;21.20;87.80
6841;DHT22;3458;53.678;14.080;2022-07-05T09:13:50;21.00;87.00
6841;DHT22;3458;53.678;14.080;2022-07-05T09:16:16;21.10;86.60
6841;DHT22;3458;53.678;14.080;2022-07-05T09:18:50;21.20;87.60
6841;DHT22;3458;53.678;14.080;2022-07-05T09:21:24;21.40;87.10
6841;DHT22;3458;53.678;14.080;2022-07-05T09:26:46;21.60;85.10
6841;DHT22;3458;53.678;14.080;2022-07-05T09:29:19;21.60;83.60
6841;DHT22;3458;53.678;14.080;2022-07-05T09:31:47;21.60;83.10
6841;DHT22;3458;53.678;14.080;2022-07-05T09:34:21;21.60;82.70
6841;DHT22;3458;53.678;14.080;2022-07-05T09:36:57;21.70;81.60
6841;DHT22;3458;53.678;14.080;2022-07-05T09:42:20;21.90;80.10
6841;DHT22;3458;53.678;14.080;2022-07-05T09:44:52;21.90;80.10
6841;DHT22;3458;53.678;14.080;2022-07-05T09:47:20;21.80;79.60
6841;DHT22;3458;53.678;14.080;2022-07-05T09:49:48;21.90;79.70
6841;DHT22;3458;53.678;14.080;2022-07-05T09:52:26;22.00;79.00
6841;DHT22;3458;53.678;14.080;2022-07-05T09:55:06;22.20;78.50
6841;DHT22;3458;53.678;14.080;2022-07-05T09:57:34;22.30;77.30
6841;DHT22;3458;53.678;14.080;2022-07-05T10:00:02;22.50;77.10
6841;DHT22;3458;53.678;14.080;2022-07-05T10:02:48;22.60;77.30
6841;DHT22;3458;53.678;14.080;2022-07-05T10:05:24;22.50;76.30
6841;DHT22;3458;53.678;14.080;2022-07-05T10:07:52;22.30;76.20
6841;DHT22;3458;53.678;14.080;2022-07-05T10:10:20;21.90;76.80
6841;DHT22;3458;53.678;14.080;2022-07-05T10:12:48;22.00;77.70
6841;DHT22;3458;53.678;14.080;2022-07-05T10:15:16;22.00;77.70
6841;DHT22;3458;53.678;14.080;2022-07-05T10:18:08;22.20;76.60
6841;DHT22;3458;53.678;14.080;2022-07-05T10:20:42;22.40;78.40
6841;DHT22;3458;53.678;14.080;2022-07-05T10:23:14;22.60;75.90
6841;DHT22;3458;53.678;14.080;2022-07-05T10:25:41;22.50;74.90
6841;DHT22;3458;53.678;14.080;2022-07-05T10:28:08;22.40;73.70
6841;DHT22;3458;53.678;14.080;2022-07-05T10:30:34;22.40;72.80
6841;DHT22;3458;53.678;14.080;2022-07-05T10:33:04;22.40;73.40
6841;DHT22;3458;53.678;14.080;2022-07-05T10:35:30;22.60;72.80
6841;DHT22;3458;53.678;14.080;2022-07-05T10:37:57;22.60;72.90
6841;DHT22;3458;53.678;14.080;2022-07-05T10:40:23;22.70;72.20
6841;DHT22;3458;53.678;14.080;2022-07-05T10:42:52;22.80;72.70
6841;DHT22;3458;53.678;14.080;2022-07-05T10:50:55;23.00;72.40
6841;DHT22;3458;53.678;14.080;2022-07-05T10:53:29;22.80;69.80
6841;DHT22;3458;53.678;14.080;2022-07-05T10:58:34;22.30;70.80
6841;DHT22;3458;53.678;14.080;2022-07-05T11:06:25;22.40;70.80
6841;DHT22;3458;53.678;14.080;2022-07-05T11:11:30;22.70;67.60
6841;DHT22;3458;53.678;14.080;2022-07-05T11:14:03;22.90;66.90
6841;DHT22;3458;53.678;14.080;2022-07-05T11:16:36;23.10;66.60
6841;DHT22;3458;53.678;14.080;2022-07-05T11:19:10;23.40;67.10
6841;DHT22;3458;53.678;14.080;2022-07-05T11:21:37;23.50;66.70
6841;DHT22;3458;53.678;14.080;2022-07-05T11:24:24;23.70;67.20
6841;DHT22;3458;53.678;14.080;2022-07-05T11:26:51;23.70;63.60
6841;DHT22;3458;53.678;14.080;2022-07-05T11:29:39;23.90;63.60
6841;DHT22;3458;53.678;14.080;2022-07-05T11:32:06;23.90;61.20
6841;DHT22;3458;53.678;14.080;2022-07-05T11:34:32;24.00;61.50
6841;DHT22;3458;53.678;14.080;2022-07-05T11:39:39;24.50;61.10
6841;DHT22;3458;53.678;14.080;2022-07-05T11:42:05;24.50;58.90
6841;DHT22;3458;53.678;14.080;2022-07-05T11:44:32;24.80;58.50
6841;DHT22;3458;53.678;14.080;2022-07-05T11:46:59;24.80;58.10
6841;DHT22;3458;53.678;14.080;2022-07-05T11:49:24;24.70;57.20
6841;DHT22;3458;53.678;14.080;2022-07-05T11:51:54;24.80;57.70
6841;DHT22;3458;53.678;14.080;2022-07-05T11:54:24;25.00;58.60
6841;DHT22;3458;53.678;14.080;2022-07-05T11:56:50;24.80;58.00
6841;DHT22;3458;53.678;14.080;2022-07-05T11:59:20;25.00;57.80
6841;DHT22;3458;53.678;14.080;2022-07-05T12:01:49;25.80;58.00
6841;DHT22;3458;53.678;14.080;2022-07-05T12:04:29;26.70;56.00
6841;DHT22;3458;53.678;14.080;2022-07-05T12:06:55;27.90;53.70
6841;DHT22;3458;53.678;14.080;2022-07-05T12:09:26;29.00;51.30
6841;DHT22;3458;53.678;14.080;2022-07-05T12:11:56;30.00;49.40
6841;DHT22;3458;53.678;14.080;2022-07-05T12:14:48;30.70;46.90
6841;DHT22;3458;53.678;14.080;2022-07-05T12:17:22;31.50;44.80
6841;DHT22;3458;53.678;14.080;2022-07-05T12:19:57;32.10;44.40
6841;DHT22;3458;53.678;14.080;2022-07-05T12:22:53;33.10;43.80
6841;DHT22;3458;53.678;14.080;2022-07-05T12:25:20;34.00;41.30
6841;DHT22;3458;53.678;14.080;2022-07-05T12:27:51;34.30;39.60
6841;DHT22;3458;53.678;14.080;2022-07-05T12:30:18;32.10;39.20
6841;DHT22;3458;53.678;14.080;2022-07-05T12:35:49;28.70;43.10
6841;DHT22;3458;53.678;14.080;2022-07-05T12:38:18;28.20;44.10
6841;DHT22;3458;53.678;14.080;2022-07-05T12:40:49;28.50;44.90
6841;DHT22;3458;53.678;14.080;2022-07-05T12:43:22;29.90;44.30
6841;DHT22;3458;53.678;14.080;2022-07-05T12:46:09;32.00;42.70
6841;DHT22;3458;53.678;14.080;2022-07-05T12:48:38;34.00;40.40
6841;DHT22;3458;53.678;14.080;2022-07-05T12:51:06;34.30;38.20
6841;DHT22;3458;53.678;14.080;2022-07-05T12:53:32;34.70;37.50
6841;DHT22;3458;53.678;14.080;2022-07-05T12:56:22;34.40;37.30
6841;DHT22;3458;53.678;14.080;2022-07-05T12:59:08;35.50;37.80
6841;DHT22;3458;53.678;14.080;2022-07-05T13:01:38;35.70;35.80
6841;DHT22;3458;53.678;14.080;2022-07-05T13:04:17;36.50;34.40
6841;DHT22;3458;53.678;14.080;2022-07-05T13:09:36;32.50;37.40
6841;DHT22;3458;53.678;14.080;2022-07-05T13:12:18;31.10;38.40
6841;DHT22;3458;53.678;14.080;2022-07-05T13:14:55;31.00;39.40
6841;DHT22;3458;53.678;14.080;2022-07-05T13:17:22;30.90;38.40
6841;DHT22;3458;53.678;14.080;2022-07-05T13:19:52;32.30;39.00
6841;DHT22;3458;53.678;14.080;2022-07-05T13:22:18;33.60;37.00
6841;DHT22;3458;53.678;14.080;2022-07-05T13:24:44;35.00;35.60
6841;DHT22;3458;53.678;14.080;2022-07-05T13:27:11;34.90;34.40
6841;DHT22;3458;53.678;14.080;2022-07-05T13:29:38;33.10;35.10
6841;DHT22;3458;53.678;14.080;2022-07-05T13:32:04;33.70;35.10
6841;DHT22;3458;53.678;14.080;2022-07-05T13:34:33;33.60;35.40
6841;DHT22;3458;53.678;14.080;2022-07-05T13:36:59;34.30;36.00
6841;DHT22;3458;53.678;14.080;2022-07-05T13:39:26;35.50;34.10
6841;DHT22;3458;53.678;14.080;2022-07-05T13:41:53;37.10;34.00
6841;DHT22;3458;53.678;14.080;2022-07-05T13:44:22;38.90;33.20
6841;DHT22;3458;53.678;14.080;2022-07-05T13:46:48;39.90;29.50
6841;DHT22;3458;53.678;14.080;2022-07-05T13:49:14;39.30;28.60
6841;DHT22;3458;53.678;14.080;2022-07-05T13:51:40;39.10;29.50
6841;DHT22;3458;53.678;14.080;2022-07-05T13:54:05;39.00;28.90
6841;DHT22;3458;53.678;14.080;2022-07-05T13:56:31;39.10;28.40
6841;DHT22;3458;53.678;14.080;2022-07-05T13:58:57;39.20;29.20
6841;DHT22;3458;53.678;14.080;2022-07-05T14:01:23;39.80;28.20
6841;DHT22;3458;53.678;14.080;2022-07-05T14:03:56;40.40;28.00
6841;DHT22;3458;53.678;14.080;2022-07-05T14:06:26;41.30;27.60
6841;DHT22;3458;53.678;14.080;2022-07-05T14:08:52;42.00;26.80
6841;DHT22;3458;53.678;14.080;2022-07-05T14:11:18;42.00;26.20
6841;DHT22;3458;53.678;14.080;2022-07-05T14:13:44;42.50;26.10
6841;DHT22;3458;53.678;14.080;2022-07-05T14:16:09;43.30;25.70
6841;DHT22;3458;53.678;14.080;2022-07-05T14:18:35;41.00;25.20
6841;DHT22;3458;53.678;14.080;2022-07-05T14:21:01;41.40;27.00
6841;DHT22;3458;53.678;14.080;2022-07-05T14:23:26;41.60;26.40
6841;DHT22;3458;53.678;14.080;2022-07-05T14:25:52;39.80;26.30
6841;DHT22;3458;53.678;14.080;2022-07-05T14:28:18;37.30;28.80
6841;DHT22;3458;53.678;14.080;2022-07-05T14:30:44;39.50;29.20
6841;DHT22;3458;53.678;14.080;2022-07-05T14:33:11;41.80;27.80
6841;DHT22;3458;53.678;14.080;2022-07-05T14:35:38;43.20;26.30
6841;DHT22;3458;53.678;14.080;2022-07-05T14:38:04;44.60;25.60
6841;DHT22;3458;53.678;14.080;2022-07-05T14:40:30;45.20;24.90
6841;DHT22;3458;53.678;14.080;2022-07-05T14:42:58;45.70;24.80
6841;DHT22;3458;53.678;14.080;2022-07-05T14:45:24;46.20;24.00
6841;DHT22;3458;53.678;14.080;2022-07-05T14:47:49;45.60;24.20
6841;DHT22;3458;53.678;14.080;2022-07-05T14:50:15;46.20;23.50
6841;DHT22;3458;53.678;14.080;2022-07-05T14:52:42;46.60;22.50
6841;DHT22;3458;53.678;14.080;2022-07-05T14:55:08;43.90;22.50
6841;DHT22;3458;53.678;14.080;2022-07-05T14:57:37;39.20;24.30
6841;DHT22;3458;53.678;14.080;2022-07-05T15:00:05;37.20;26.50
6841;DHT22;3458;53.678;14.080;2022-07-05T15:02:32;36.80;27.20
6841;DHT22;3458;53.678;14.080;2022-07-05T15:05:00;35.60;28.10
6841;DHT22;3458;53.678;14.080;2022-07-05T15:07:26;34.30;29.40
6841;DHT22;3458;53.678;14.080;2022-07-05T15:09:52;33.70;31.20
6841;DHT22;3458;53.678;14.080;2022-07-05T15:12:18;37.40;30.60
6841;DHT22;3458;53.678;14.080;2022-07-05T15:14:44;40.90;27.50
6841;DHT22;3458;53.678;14.080;2022-07-05T15:17:10;42.30;24.70
6841;DHT22;3458;53.678;14.080;2022-07-05T15:19:36;43.00;24.10
6841;DHT22;3458;53.678;14.080;2022-07-05T15:22:04;43.40;23.50
6841;DHT22;3458;53.678;14.080;2022-07-05T15:24:30;43.40;23.60
6841;DHT22;3458;53.678;14.080;2022-07-05T15:26:55;43.80;22.90
6841;DHT22;3458;53.678;14.080;2022-07-05T15:29:21;44.10;23.00
6841;DHT22;3458;53.678;14.080;2022-07-05T15:31:46;44.60;22.50
6841;DHT22;3458;53.678;14.080;2022-07-05T15:34:12;45.10;22.90
6841;DHT22;3458;53.678;14.080;2022-07-05T15:36:38;45.30;22.10
6841;DHT22;3458;53.678;14.080;2022-07-05T15:39:05;45.00;22.20
6841;DHT22;3458;53.678;14.080;2022-07-05T15:41:32;44.90;22.30
6841;DHT22;3458;53.678;14.080;2022-07-05T15:43:58;45.10;22.30
6841;DHT22;3458;53.678;14.080;2022-07-05T15:46:23;44.10;21.90
6841;DHT22;3458;53.678;14.080;2022-07-05T15:48:49;40.00;22.90
6841;DHT22;3458;53.678;14.080;2022-07-05T15:51:18;36.90;24.70
6841;DHT22;3458;53.678;14.080;2022-07-05T15:53:44;37.10;26.00
6841;DHT22;3458;53.678;14.080;2022-07-05T15:56:10;35.50;26.30
6841;DHT22;3458;53.678;14.080;2022-07-05T15:58:36;36.10;27.10
6841;DHT22;3458;53.678;14.080;2022-07-05T16:01:03;38.60;25.70
6841;DHT22;3458;53.678;14.080;2022-07-05T16:03:29;39.30;24.50
6841;DHT22;3458;53.678;14.080;2022-07-05T16:05:59;39.80;23.90
6841;DHT22;3458;53.678;14.080;2022-07-05T16:08:28;40.60;23.80
6841;DHT22;3458;53.678;14.080;2022-07-05T16:10:54;41.70;23.40
6841;DHT22;3458;53.678;14.080;2022-07-05T16:13:21;41.90;22.60
6841;DHT22;3458;53.678;14.080;2022-07-05T16:15:46;41.30;22.70
6841;DHT22;3458;53.678;14.080;2022-07-05T16:18:31;41.30;23.20
6841;DHT22;3458;53.678;14.080;2022-07-05T16:21:02;41.00;23.00